sensor_id;sensor_type;location;lat;lon;timestamp;P1;durP1;ratioP1;P2;durP2;ratioP2
54197;SDS011;40105;52.366;17.000;2023-12-14T00:02:01;18.77;;;7.93;;
54197;SDS011;40105;52.366;17.000;2023-12-14T00:04:27;13.82;;;7.43;;
54197;SDS011;40105;52.366;17.000;2023-12-14T00:06:52;14.37;;;5.57;;
54197;SDS011;40105;52.366;17.000;2023-12-14T00:09:17;11.80;;;6.50;;
54197;SDS011;40105;52.366;17.000;2023-12-14T00:11:42;13.20;;;4.20;;
54197;SDS011;40105;52.366;17.000;2023-12-14T00:14:07;17.13;;;6.73;;
54197;SDS011;40105;52.366;17.000;2023-12-14T00:16:33;10.73;;;7.05;;
54197;SDS011;40105;52.366;17.000;2023-12-14T00:18:58;15.97;;;5.67;;
54197;SDS011;40105;52.366;17.000;2023-12-14T00:21:23;15.37;;;5.87;;
54197;SDS011;40105;52.366;17.000;2023-12-14T00:23:48;10.80;;;5.70;;
54197;SDS011;40105;52.366;17.000;2023-12-14T00:26:14;10.20;;;6.43;;
54197;SDS011;40105;52.366;17.000;2023-12-14T00:28:39;39.53;;;9.40;;
54197;SDS011;40105;52.366;17.000;2023-12-14T00:31:04;11.03;;;6.10;;
54197;SDS011;40105;52.366;17.000;2023-12-14T00:33:29;27.35;;;8.25;;
54197;SDS011;40105;52.366;17.000;2023-12-14T00:35:54;30.17;;;7.47;;
54197;SDS011;40105;52.366;17.000;2023-12-14T00:38:20;11.77;;;6.60;;
54197;SDS011;40105;52.366;17.000;2023-12-14T00:40:45;30.67;;;8.37;;
54197;SDS011;40105;52.366;17.000;2023-12-14T00:43:10;17.53;;;7.53;;
54197;SDS011;40105;52.366;17.000;2023-12-14T00:45:35;12.80;;;7.60;;
54197;SDS011;40105;52.366;17.000;2023-12-14T00:48:00;21.77;;;7.83;;
54197;SDS011;40105;52.366;17.000;2023-12-14T00:50:25;14.97;;;7.10;;
54197;SDS011;40105;52.366;17.000;2023-12-14T00:52:51;16.13;;;5.97;;
54197;SDS011;40105;52.366;17.000;2023-12-14T00:55:16;15.48;;;6.70;;
54197;SDS011;40105;52.366;17.000;2023-12-14T00:57:41;17.08;;;8.73;;
54197;SDS011;40105;52.366;17.000;2023-12-14T01:00:06;9.03;;;6.37;;
54197;SDS011;40105;52.366;17.000;2023-12-14T01:02:32;4.22;;;3.85;;
54197;SDS011;40105;52.366;17.000;2023-12-14T01:04:57;13.63;;;7.50;;
54197;SDS011;40105;52.366;17.000;2023-12-14T01:07:22;20.80;;;7.43;;
54197;SDS011;40105;52.366;17.000;2023-12-14T01:09:47;21.73;;;7.63;;
54197;SDS011;40105;52.366;17.000;2023-12-14T01:12:13;13.17;;;6.10;;
54197;SDS011;40105;52.366;17.000;2023-12-14T01:14:38;6.87;;;4.97;;
54197;SDS011;40105;52.366;17.000;2023-12-14T01:17:03;8.73;;;4.80;;
54197;SDS011;40105;52.366;17.000;2023-12-14T01:19:28;21.63;;;7.70;;
54197;SDS011;40105;52.366;17.000;2023-12-14T01:21:53;9.17;;;6.40;;
54197;SDS011;40105;52.366;17.000;2023-12-14T01:24:20;17.58;;;6.18;;
54197;SDS011;40105;52.366;17.000;2023-12-14T01:26:45;10.90;;;8.23;;
54197;SDS011;40105;52.366;17.000;2023-12-14T01:29:10;12.30;;;7.30;;
54197;SDS011;40105;52.366;17.000;2023-12-14T01:31:36;23.70;;;6.72;;
54197;SDS011;40105;52.366;17.000;2023-12-14T01:34:01;5.93;;;4.30;;
54197;SDS011;40105;52.366;17.000;2023-12-14T01:36:26;7.27;;;5.80;;
54197;SDS011;40105;52.366;17.000;2023-12-14T01:38:52;13.60;;;7.97;;
54197;SDS011;40105;52.366;17.000;2023-12-14T01:41:17;14.88;;;7.20;;
54197;SDS011;40105;52.366;17.000;2023-12-14T01:43:42;16.50;;;7.95;;
54197;SDS011;40105;52.366;17.000;2023-12-14T01:46:07;15.80;;;7.53;;
54197;SDS011;40105;52.366;17.000;2023-12-14T01:48:33;25.10;;;7.70;;
54197;SDS011;40105;52.366;17.000;2023-12-14T01:50:58;11.68;;;5.70;;
54197;SDS011;40105;52.366;17.000;2023-12-14T01:53:23;12.00;;;6.77;;
54197;SDS011;40105;52.366;17.000;2023-12-14T01:55:48;14.17;;;7.67;;
54197;SDS011;40105;52.366;17.000;2023-12-14T01:58:13;13.07;;;4.70;;
54197;SDS011;40105;52.366;17.000;2023-12-14T02:03:19;16.80;;;4.60;;
54197;SDS011;40105;52.366;17.000;2023-12-14T02:05:44;15.00;;;5.30;;
54197;SDS011;40105;52.366;17.000;2023-12-14T02:08:09;7.83;;;4.83;;
54197;SDS011;40105;52.366;17.000;2023-12-14T02:10:34;14.07;;;6.77;;
54197;SDS011;40105;52.366;17.000;2023-12-14T02:13:03;18.93;;;10.03;;
54197;SDS011;40105;52.366;17.000;2023-12-14T02:15:28;19.42;;;4.95;;
54197;SDS011;40105;52.366;17.000;2023-12-14T02:17:53;11.30;;;5.67;;
54197;SDS011;40105;52.366;17.000;2023-12-14T02:20:18;7.07;;;3.80;;
54197;SDS011;40105;52.366;17.000;2023-12-14T02:22:50;4.57;;;3.80;;
54197;SDS011;40105;52.366;17.000;2023-12-14T02:25:16;12.23;;;6.72;;
54197;SDS011;40105;52.366;17.000;2023-12-14T02:27:41;14.70;;;5.55;;
54197;SDS011;40105;52.366;17.000;2023-12-14T02:30:06;4.10;;;3.20;;
54197;SDS011;40105;52.366;17.000;2023-12-14T02:32:31;6.18;;;3.22;;
54197;SDS011;40105;52.366;17.000;2023-12-14T02:34:56;9.00;;;4.28;;
54197;SDS011;40105;52.366;17.000;2023-12-14T02:37:22;16.73;;;5.17;;
54197;SDS011;40105;52.366;17.000;2023-12-14T02:39:47;6.87;;;3.00;;
54197;SDS011;40105;52.366;17.000;2023-12-14T02:42:12;3.00;;;2.70;;
54197;SDS011;40105;52.366;17.000;2023-12-14T02:44:37;7.30;;;3.43;;
54197;SDS011;40105;52.366;17.000;2023-12-14T02:47:02;9.97;;;3.80;;
54197;SDS011;40105;52.366;17.000;2023-12-14T02:49:28;5.80;;;4.05;;
54197;SDS011;40105;52.366;17.000;2023-12-14T02:51:53;9.33;;;3.13;;
54197;SDS011;40105;52.366;17.000;2023-12-14T02:54:18;8.77;;;5.43;;
54197;SDS011;40105;52.366;17.000;2023-12-14T02:56:43;5.87;;;2.17;;
54197;SDS011;40105;52.366;17.000;2023-12-14T02:59:08;3.03;;;2.20;;
54197;SDS011;40105;52.366;17.000;2023-12-14T03:01:33;4.22;;;3.58;;
54197;SDS011;40105;52.366;17.000;2023-12-14T03:03:59;5.57;;;3.03;;
54197;SDS011;40105;52.366;17.000;2023-12-14T03:06:24;6.07;;;3.27;;
54197;SDS011;40105;52.366;17.000;2023-12-14T03:08:49;5.47;;;3.70;;
54197;SDS011;40105;52.366;17.000;2023-12-14T03:11:23;6.60;;;4.90;;
54197;SDS011;40105;52.366;17.000;2023-12-14T03:13:48;3.75;;;2.67;;
54197;SDS011;40105;52.366;17.000;2023-12-14T03:16:13;1.67;;;1.57;;
54197;SDS011;40105;52.366;17.000;2023-12-14T03:18:39;3.37;;;2.70;;
54197;SDS011;40105;52.366;17.000;2023-12-14T03:21:04;5.87;;;4.57;;
54197;SDS011;40105;52.366;17.000;2023-12-14T03:23:29;12.87;;;3.60;;
54197;SDS011;40105;52.366;17.000;2023-12-14T03:25:54;3.95;;;3.42;;
54197;SDS011;40105;52.366;17.000;2023-12-14T03:28:19;3.30;;;2.57;;
54197;SDS011;40105;52.366;17.000;2023-12-14T03:30:44;5.00;;;2.45;;
54197;SDS011;40105;52.366;17.000;2023-12-14T03:33:10;5.40;;;2.13;;
54197;SDS011;40105;52.366;17.000;2023-12-14T03:35:35;7.97;;;2.95;;
54197;SDS011;40105;52.366;17.000;2023-12-14T03:38:01;3.10;;;1.90;;
54197;SDS011;40105;52.366;17.000;2023-12-14T03:40:26;7.03;;;2.47;;
54197;SDS011;40105;52.366;17.000;2023-12-14T03:42:51;4.63;;;2.90;;
54197;SDS011;40105;52.366;17.000;2023-12-14T03:45:16;5.60;;;3.27;;
54197;SDS011;40105;52.366;17.000;2023-12-14T03:47:41;3.03;;;1.50;;
54197;SDS011;40105;52.366;17.000;2023-12-14T03:50:07;4.43;;;3.40;;
54197;SDS011;40105;52.366;17.000;2023-12-14T03:52:32;6.47;;;3.58;;
54197;SDS011;40105;52.366;17.000;2023-12-14T03:54:57;7.73;;;2.60;;
54197;SDS011;40105;52.366;17.000;2023-12-14T03:57:22;6.73;;;4.20;;
54197;SDS011;40105;52.366;17.000;2023-12-14T03:59:47;4.30;;;3.90;;
54197;SDS011;40105;52.366;17.000;2023-12-14T04:02:13;5.63;;;5.07;;
54197;SDS011;40105;52.366;17.000;2023-12-14T04:04:38;3.33;;;2.67;;
54197;SDS011;40105;52.366;17.000;2023-12-14T04:07:03;6.23;;;4.20;;
54197;SDS011;40105;52.366;17.000;2023-12-14T04:09:29;7.63;;;3.65;;
54197;SDS011;40105;52.366;17.000;2023-12-14T04:11:55;1.77;;;0.85;;
54197;SDS011;40105;52.366;17.000;2023-12-14T04:14:20;7.10;;;3.90;;
54197;SDS011;40105;52.366;17.000;2023-12-14T04:16:45;2.50;;;1.53;;
54197;SDS011;40105;52.366;17.000;2023-12-14T04:19:10;1.92;;;1.70;;
54197;SDS011;40105;52.366;17.000;2023-12-14T04:21:36;3.80;;;2.63;;
54197;SDS011;40105;52.366;17.000;2023-12-14T04:24:01;6.72;;;2.92;;
54197;SDS011;40105;52.366;17.000;2023-12-14T04:26:26;8.83;;;2.13;;
54197;SDS011;40105;52.366;17.000;2023-12-14T04:28:53;4.05;;;2.47;;
54197;SDS011;40105;52.366;17.000;2023-12-14T04:31:18;4.07;;;2.70;;
54197;SDS011;40105;52.366;17.000;2023-12-14T04:33:43;3.92;;;1.95;;
54197;SDS011;40105;52.366;17.000;2023-12-14T04:36:08;6.70;;;1.90;;
54197;SDS011;40105;52.366;17.000;2023-12-14T04:38:33;3.70;;;3.00;;
54197;SDS011;40105;52.366;17.000;2023-12-14T04:40:59;4.88;;;4.07;;
54197;SDS011;40105;52.366;17.000;2023-12-14T04:43:24;3.00;;;2.07;;
54197;SDS011;40105;52.366;17.000;2023-12-14T04:45:49;5.25;;;3.53;;
54197;SDS011;40105;52.366;17.000;2023-12-14T04:48:14;2.53;;;2.20;;
54197;SDS011;40105;52.366;17.000;2023-12-14T04:50:39;2.87;;;2.67;;
54197;SDS011;40105;52.366;17.000;2023-12-14T04:53:04;2.97;;;2.67;;
54197;SDS011;40105;52.366;17.000;2023-12-14T04:55:30;6.70;;;3.00;;
54197;SDS011;40105;52.366;17.000;2023-12-14T04:57:55;3.97;;;2.53;;
54197;SDS011;40105;52.366;17.000;2023-12-14T05:00:20;5.70;;;3.90;;
54197;SDS011;40105;52.366;17.000;2023-12-14T05:02:46;11.52;;;5.18;;
54197;SDS011;40105;52.366;17.000;2023-12-14T05:05:12;11.30;;;2.60;;
54197;SDS011;40105;52.366;17.000;2023-12-14T05:07:38;3.97;;;3.57;;
54197;SDS011;40105;52.366;17.000;2023-12-14T05:10:03;6.60;;;2.10;;
54197;SDS011;40105;52.366;17.000;2023-12-14T05:12:28;5.72;;;4.40;;
54197;SDS011;40105;52.366;17.000;2023-12-14T05:14:54;3.63;;;2.67;;
54197;SDS011;40105;52.366;17.000;2023-12-14T05:17:19;2.87;;;2.30;;
54197;SDS011;40105;52.366;17.000;2023-12-14T05:19:45;13.48;;;2.30;;
54197;SDS011;40105;52.366;17.000;2023-12-14T05:22:11;4.47;;;3.10;;
54197;SDS011;40105;52.366;17.000;2023-12-14T05:24:37;4.60;;;2.85;;
54197;SDS011;40105;52.366;17.000;2023-12-14T05:27:02;7.00;;;1.63;;
54197;SDS011;40105;52.366;17.000;2023-12-14T05:29:28;8.03;;;5.17;;
54197;SDS011;40105;52.366;17.000;2023-12-14T05:31:53;3.33;;;2.77;;
54197;SDS011;40105;52.366;17.000;2023-12-14T05:34:18;1.75;;;1.58;;
54197;SDS011;40105;52.366;17.000;2023-12-14T05:36:43;3.20;;;2.65;;
54197;SDS011;40105;52.366;17.000;2023-12-14T05:39:08;9.93;;;4.67;;
54197;SDS011;40105;52.366;17.000;2023-12-14T05:41:39;2.60;;;2.30;;
54197;SDS011;40105;52.366;17.000;2023-12-14T05:44:04;10.45;;;4.32;;
54197;SDS011;40105;52.366;17.000;2023-12-14T05:46:29;4.57;;;3.23;;
54197;SDS011;40105;52.366;17.000;2023-12-14T05:48:54;5.33;;;3.73;;
54197;SDS011;40105;52.366;17.000;2023-12-14T05:51:26;4.05;;;2.65;;
54197;SDS011;40105;52.366;17.000;2023-12-14T05:53:52;5.85;;;3.50;;
54197;SDS011;40105;52.366;17.000;2023-12-14T05:56:17;2.17;;;2.07;;
54197;SDS011;40105;52.366;17.000;2023-12-14T05:58:42;4.45;;;2.70;;
54197;SDS011;40105;52.366;17.000;2023-12-14T06:01:07;11.33;;;5.30;;
54197;SDS011;40105;52.366;17.000;2023-12-14T06:03:33;5.85;;;4.75;;
54197;SDS011;40105;52.366;17.000;2023-12-14T06:05:58;2.50;;;2.30;;
54197;SDS011;40105;52.366;17.000;2023-12-14T06:08:23;9.05;;;4.38;;
54197;SDS011;40105;52.366;17.000;2023-12-14T06:10:48;5.05;;;2.75;;
54197;SDS011;40105;52.366;17.000;2023-12-14T06:13:13;23.43;;;3.83;;
54197;SDS011;40105;52.366;17.000;2023-12-14T06:15:38;6.60;;;3.30;;
54197;SDS011;40105;52.366;17.000;2023-12-14T06:18:04;6.65;;;4.20;;
54197;SDS011;40105;52.366;17.000;2023-12-14T06:20:30;1.38;;;1.23;;
54197;SDS011;40105;52.366;17.000;2023-12-14T06:22:55;6.07;;;3.83;;
54197;SDS011;40105;52.366;17.000;2023-12-14T06:25:20;10.60;;;2.00;;
54197;SDS011;40105;52.366;17.000;2023-12-14T06:27:45;5.40;;;3.17;;
54197;SDS011;40105;52.366;17.000;2023-12-14T06:30:10;4.73;;;2.50;;
54197;SDS011;40105;52.366;17.000;2023-12-14T06:32:36;3.65;;;2.65;;
54197;SDS011;40105;52.366;17.000;2023-12-14T06:35:01;4.50;;;3.25;;
54197;SDS011;40105;52.366;17.000;2023-12-14T06:37:27;4.20;;;3.17;;
54197;SDS011;40105;52.366;17.000;2023-12-14T06:39:52;8.03;;;3.00;;
54197;SDS011;40105;52.366;17.000;2023-12-14T06:42:17;6.20;;;5.13;;
54197;SDS011;40105;52.366;17.000;2023-12-14T06:44:42;5.27;;;3.07;;
54197;SDS011;40105;52.366;17.000;2023-12-14T06:47:07;6.60;;;4.45;;
54197;SDS011;40105;52.366;17.000;2023-12-14T06:49:33;12.67;;;4.47;;
54197;SDS011;40105;52.366;17.000;2023-12-14T06:51:58;3.13;;;2.57;;
54197;SDS011;40105;52.366;17.000;2023-12-14T06:54:23;2.22;;;2.03;;
54197;SDS011;40105;52.366;17.000;2023-12-14T06:56:48;7.83;;;3.43;;
54197;SDS011;40105;52.366;17.000;2023-12-14T06:59:13;3.23;;;1.43;;
54197;SDS011;40105;52.366;17.000;2023-12-14T07:01:38;5.90;;;3.20;;
54197;SDS011;40105;52.366;17.000;2023-12-14T07:04:04;1.55;;;1.48;;
54197;SDS011;40105;52.366;17.000;2023-12-14T07:06:29;5.97;;;2.93;;
54197;SDS011;40105;52.366;17.000;2023-12-14T07:08:54;5.83;;;4.23;;
54197;SDS011;40105;52.366;17.000;2023-12-14T07:11:19;3.07;;;2.77;;
54197;SDS011;40105;52.366;17.000;2023-12-14T07:13:44;5.87;;;2.97;;
54197;SDS011;40105;52.366;17.000;2023-12-14T07:16:11;4.50;;;3.55;;
54197;SDS011;40105;52.366;17.000;2023-12-14T07:18:39;3.57;;;2.77;;
54197;SDS011;40105;52.366;17.000;2023-12-14T07:21:05;5.80;;;3.83;;
54197;SDS011;40105;52.366;17.000;2023-12-14T07:23:30;9.07;;;4.03;;
54197;SDS011;40105;52.366;17.000;2023-12-14T07:25:55;3.13;;;2.57;;
54197;SDS011;40105;52.366;17.000;2023-12-14T07:28:21;3.45;;;3.15;;
54197;SDS011;40105;52.366;17.000;2023-12-14T07:30:46;3.67;;;2.47;;
54197;SDS011;40105;52.366;17.000;2023-12-14T07:33:11;4.73;;;2.27;;
54197;SDS011;40105;52.366;17.000;2023-12-14T07:35:37;6.03;;;3.97;;
54197;SDS011;40105;52.366;17.000;2023-12-14T07:38:02;8.18;;;2.58;;
54197;SDS011;40105;52.366;17.000;2023-12-14T07:40:27;6.93;;;4.47;;
54197;SDS011;40105;52.366;17.000;2023-12-14T07:42:53;5.78;;;2.35;;
54197;SDS011;40105;52.366;17.000;2023-12-14T07:45:18;5.50;;;2.50;;
54197;SDS011;40105;52.366;17.000;2023-12-14T07:47:44;4.40;;;2.22;;
54197;SDS011;40105;52.366;17.000;2023-12-14T07:50:11;9.85;;;4.97;;
54197;SDS011;40105;52.366;17.000;2023-12-14T07:52:37;5.90;;;3.33;;
54197;SDS011;40105;52.366;17.000;2023-12-14T07:55:02;4.80;;;2.17;;
54197;SDS011;40105;52.366;17.000;2023-12-14T07:57:28;2.78;;;2.30;;
54197;SDS011;40105;52.366;17.000;2023-12-14T07:59:53;5.33;;;4.07;;
54197;SDS011;40105;52.366;17.000;2023-12-14T08:02:18;8.27;;;2.58;;
54197;SDS011;40105;52.366;17.000;2023-12-14T08:04:43;6.97;;;3.90;;
54197;SDS011;40105;52.366;17.000;2023-12-14T08:07:08;3.20;;;2.90;;
54197;SDS011;40105;52.366;17.000;2023-12-14T08:09:33;12.63;;;4.93;;
54197;SDS011;40105;52.366;17.000;2023-12-14T08:11:59;2.13;;;1.93;;
54197;SDS011;40105;52.366;17.000;2023-12-14T08:14:24;1.63;;;1.48;;
54197;SDS011;40105;52.366;17.000;2023-12-14T08:16:49;3.33;;;3.03;;
54197;SDS011;40105;52.366;17.000;2023-12-14T08:19:14;5.20;;;3.07;;
54197;SDS011;40105;52.366;17.000;2023-12-14T08:21:39;7.07;;;4.00;;
54197;SDS011;40105;52.366;17.000;2023-12-14T08:24:04;6.60;;;3.50;;
54197;SDS011;40105;52.366;17.000;2023-12-14T08:26:30;9.23;;;4.03;;
54197;SDS011;40105;52.366;17.000;2023-12-14T08:28:55;5.10;;;2.73;;
54197;SDS011;40105;52.366;17.000;2023-12-14T08:31:20;5.20;;;4.70;;
54197;SDS011;40105;52.366;17.000;2023-12-14T08:33:45;4.37;;;3.33;;
54197;SDS011;40105;52.366;17.000;2023-12-14T08:36:12;6.33;;;4.03;;
54197;SDS011;40105;52.366;17.000;2023-12-14T08:38:39;4.65;;;3.13;;
54197;SDS011;40105;52.366;17.000;2023-12-14T08:41:05;19.42;;;5.10;;
54197;SDS011;40105;52.366;17.000;2023-12-14T08:43:30;5.27;;;4.40;;
54197;SDS011;40105;52.366;17.000;2023-12-14T08:45:55;4.37;;;2.27;;
54197;SDS011;40105;52.366;17.000;2023-12-14T08:48:20;6.53;;;3.67;;
54197;SDS011;40105;52.366;17.000;2023-12-14T08:50:45;12.50;;;4.83;;
54197;SDS011;40105;52.366;17.000;2023-12-14T08:53:11;3.27;;;2.97;;
54197;SDS011;40105;52.366;17.000;2023-12-14T08:55:36;8.13;;;3.83;;
54197;SDS011;40105;52.366;17.000;2023-12-14T08:58:01;8.02;;;3.80;;
54197;SDS011;40105;52.366;17.000;2023-12-14T09:00:27;13.98;;;7.93;;
54197;SDS011;40105;52.366;17.000;2023-12-14T09:02:52;9.60;;;4.37;;
54197;SDS011;40105;52.366;17.000;2023-12-14T09:05:18;10.77;;;3.63;;
54197;SDS011;40105;52.366;17.000;2023-12-14T09:07:45;4.63;;;3.03;;
54197;SDS011;40105;52.366;17.000;2023-12-14T09:10:10;9.45;;;3.42;;
54197;SDS011;40105;52.366;17.000;2023-12-14T09:12:36;4.25;;;2.85;;
54197;SDS011;40105;52.366;17.000;2023-12-14T09:15:01;8.52;;;3.85;;
54197;SDS011;40105;52.366;17.000;2023-12-14T09:17:27;4.23;;;2.10;;
54197;SDS011;40105;52.366;17.000;2023-12-14T09:19:57;3.50;;;3.05;;
54197;SDS011;40105;52.366;17.000;2023-12-14T09:22:22;5.93;;;3.27;;
54197;SDS011;40105;52.366;17.000;2023-12-14T09:24:47;8.37;;;3.17;;
54197;SDS011;40105;52.366;17.000;2023-12-14T09:27:13;6.30;;;3.80;;
54197;SDS011;40105;52.366;17.000;2023-12-14T09:29:38;7.27;;;2.67;;
54197;SDS011;40105;52.366;17.000;2023-12-14T09:32:03;11.07;;;4.40;;
54197;SDS011;40105;52.366;17.000;2023-12-14T09:34:28;8.85;;;3.83;;
54197;SDS011;40105;52.366;17.000;2023-12-14T09:36:54;3.23;;;1.87;;
54197;SDS011;40105;52.366;17.000;2023-12-14T09:39:19;3.33;;;2.58;;
54197;SDS011;40105;52.366;17.000;2023-12-14T09:41:46;10.48;;;5.95;;
54197;SDS011;40105;52.366;17.000;2023-12-14T09:44:12;4.25;;;3.80;;
54197;SDS011;40105;52.366;17.000;2023-12-14T09:46:37;6.60;;;3.80;;
54197;SDS011;40105;52.366;17.000;2023-12-14T09:49:03;9.65;;;5.38;;
54197;SDS011;40105;52.366;17.000;2023-12-14T09:51:29;9.40;;;5.18;;
54197;SDS011;40105;52.366;17.000;2023-12-14T09:53:54;5.05;;;3.20;;
54197;SDS011;40105;52.366;17.000;2023-12-14T09:56:24;3.88;;;2.65;;
54197;SDS011;40105;52.366;17.000;2023-12-14T09:58:49;2.55;;;1.33;;
54197;SDS011;40105;52.366;17.000;2023-12-14T10:01:23;5.80;;;3.03;;
54197;SDS011;40105;52.366;17.000;2023-12-14T10:03:49;2.40;;;1.75;;
54197;SDS011;40105;52.366;17.000;2023-12-14T10:06:14;22.43;;;2.83;;
54197;SDS011;40105;52.366;17.000;2023-12-14T10:08:39;5.87;;;2.23;;
54197;SDS011;40105;52.366;17.000;2023-12-14T10:11:05;2.80;;;2.05;;
54197;SDS011;40105;52.366;17.000;2023-12-14T10:13:40;3.75;;;2.83;;
54197;SDS011;40105;52.366;17.000;2023-12-14T10:16:05;4.07;;;3.60;;
54197;SDS011;40105;52.366;17.000;2023-12-14T10:18:31;7.63;;;3.00;;
54197;SDS011;40105;52.366;17.000;2023-12-14T10:20:56;4.82;;;2.70;;
54197;SDS011;40105;52.366;17.000;2023-12-14T10:23:21;4.57;;;2.37;;
54197;SDS011;40105;52.366;17.000;2023-12-14T10:25:47;1.67;;;1.07;;
54197;SDS011;40105;52.366;17.000;2023-12-14T10:28:15;2.43;;;2.17;;
54197;SDS011;40105;52.366;17.000;2023-12-14T10:30:41;3.13;;;1.65;;
54197;SDS011;40105;52.366;17.000;2023-12-14T10:33:06;5.75;;;3.05;;
54197;SDS011;40105;52.366;17.000;2023-12-14T10:35:31;5.03;;;2.47;;
54197;SDS011;40105;52.366;17.000;2023-12-14T10:37:57;5.30;;;2.63;;
54197;SDS011;40105;52.366;17.000;2023-12-14T10:40:23;3.85;;;2.47;;
54197;SDS011;40105;52.366;17.000;2023-12-14T10:42:49;5.15;;;3.30;;
54197;SDS011;40105;52.366;17.000;2023-12-14T10:45:15;2.75;;;2.53;;
54197;SDS011;40105;52.366;17.000;2023-12-14T10:47:45;4.30;;;2.55;;
54197;SDS011;40105;52.366;17.000;2023-12-14T10:50:10;2.92;;;2.67;;
54197;SDS011;40105;52.366;17.000;2023-12-14T10:52:36;4.20;;;2.83;;
54197;SDS011;40105;52.366;17.000;2023-12-14T10:55:04;5.70;;;3.72;;
54197;SDS011;40105;52.366;17.000;2023-12-14T10:57:31;9.43;;;3.10;;
54197;SDS011;40105;52.366;17.000;2023-12-14T10:59:59;6.57;;;4.03;;
54197;SDS011;40105;52.366;17.000;2023-12-14T11:02:25;4.60;;;3.83;;
54197;SDS011;40105;52.366;17.000;2023-12-14T11:04:56;5.80;;;4.67;;
54197;SDS011;40105;52.366;17.000;2023-12-14T11:10:07;4.82;;;2.85;;
54197;SDS011;40105;52.366;17.000;2023-12-14T11:12:33;3.47;;;1.90;;
54197;SDS011;40105;52.366;17.000;2023-12-14T11:14:59;3.15;;;2.78;;
54197;SDS011;40105;52.366;17.000;2023-12-14T11:17:24;4.75;;;3.28;;
54197;SDS011;40105;52.366;17.000;2023-12-14T11:19:49;2.63;;;2.30;;
54197;SDS011;40105;52.366;17.000;2023-12-14T11:22:22;4.75;;;3.42;;
54197;SDS011;40105;52.366;17.000;2023-12-14T11:24:52;2.15;;;1.65;;
54197;SDS011;40105;52.366;17.000;2023-12-14T11:27:20;12.15;;;5.00;;
54197;SDS011;40105;52.366;17.000;2023-12-14T11:29:50;4.28;;;3.38;;
54197;SDS011;40105;52.366;17.000;2023-12-14T11:32:16;4.60;;;3.67;;
54197;SDS011;40105;52.366;17.000;2023-12-14T11:34:41;5.93;;;1.92;;
54197;SDS011;40105;52.366;17.000;2023-12-14T11:37:06;5.38;;;3.00;;
54197;SDS011;40105;52.366;17.000;2023-12-14T11:39:32;4.75;;;3.72;;
54197;SDS011;40105;52.366;17.000;2023-12-14T11:41:58;6.33;;;4.10;;
54197;SDS011;40105;52.366;17.000;2023-12-14T11:44:24;10.35;;;3.75;;
54197;SDS011;40105;52.366;17.000;2023-12-14T11:46:50;5.60;;;3.15;;
54197;SDS011;40105;52.366;17.000;2023-12-14T11:49:15;6.28;;;3.03;;
54197;SDS011;40105;52.366;17.000;2023-12-14T11:51:40;3.67;;;2.97;;
54197;SDS011;40105;52.366;17.000;2023-12-14T11:54:05;3.40;;;3.10;;
54197;SDS011;40105;52.366;17.000;2023-12-14T11:56:30;4.57;;;3.47;;
54197;SDS011;40105;52.366;17.000;2023-12-14T11:58:55;3.33;;;2.83;;
54197;SDS011;40105;52.366;17.000;2023-12-14T12:01:21;3.00;;;2.80;;
54197;SDS011;40105;52.366;17.000;2023-12-14T12:03:46;4.87;;;3.43;;
54197;SDS011;40105;52.366;17.000;2023-12-14T12:06:21;1.90;;;1.77;;
54197;SDS011;40105;52.366;17.000;2023-12-14T12:08:47;2.47;;;1.80;;
54197;SDS011;40105;52.366;17.000;2023-12-14T12:11:16;2.37;;;2.10;;
54197;SDS011;40105;52.366;17.000;2023-12-14T12:13:41;2.15;;;1.85;;
54197;SDS011;40105;52.366;17.000;2023-12-14T12:16:06;4.13;;;2.47;;
54197;SDS011;40105;52.366;17.000;2023-12-14T12:18:31;2.47;;;1.83;;
54197;SDS011;40105;52.366;17.000;2023-12-14T12:20:56;6.63;;;3.63;;
54197;SDS011;40105;52.366;17.000;2023-12-14T12:23:25;6.60;;;4.35;;
54197;SDS011;40105;52.366;17.000;2023-12-14T12:25:50;4.17;;;3.80;;
54197;SDS011;40105;52.366;17.000;2023-12-14T12:28:15;7.00;;;2.47;;
54197;SDS011;40105;52.366;17.000;2023-12-14T12:30:41;2.87;;;2.47;;
54197;SDS011;40105;52.366;17.000;2023-12-14T12:33:07;2.80;;;2.42;;
54197;SDS011;40105;52.366;17.000;2023-12-14T12:35:32;3.63;;;2.33;;
54197;SDS011;40105;52.366;17.000;2023-12-14T12:37:58;4.47;;;2.92;;
54197;SDS011;40105;52.366;17.000;2023-12-14T12:40:23;6.60;;;3.77;;
54197;SDS011;40105;52.366;17.000;2023-12-14T12:42:51;4.97;;;3.75;;
54197;SDS011;40105;52.366;17.000;2023-12-14T12:45:16;6.43;;;4.22;;
54197;SDS011;40105;52.366;17.000;2023-12-14T12:47:47;7.40;;;2.85;;
54197;SDS011;40105;52.366;17.000;2023-12-14T12:50:12;5.57;;;2.92;;
54197;SDS011;40105;52.366;17.000;2023-12-14T12:52:38;2.47;;;2.28;;
54197;SDS011;40105;52.366;17.000;2023-12-14T12:55:04;11.07;;;2.83;;
54197;SDS011;40105;52.366;17.000;2023-12-14T12:57:30;1.45;;;1.20;;
54197;SDS011;40105;52.366;17.000;2023-12-14T12:59:55;2.63;;;1.97;;
54197;SDS011;40105;52.366;17.000;2023-12-14T13:02:20;6.03;;;1.90;;
54197;SDS011;40105;52.366;17.000;2023-12-14T13:04:45;6.22;;;3.40;;
54197;SDS011;40105;52.366;17.000;2023-12-14T13:07:11;7.43;;;2.55;;
54197;SDS011;40105;52.366;17.000;2023-12-14T13:09:37;12.23;;;1.95;;
54197;SDS011;40105;52.366;17.000;2023-12-14T13:12:02;2.47;;;2.28;;
54197;SDS011;40105;52.366;17.000;2023-12-14T13:14:27;3.17;;;2.63;;
54197;SDS011;40105;52.366;17.000;2023-12-14T13:16:52;2.30;;;2.10;;
54197;SDS011;40105;52.366;17.000;2023-12-14T13:19:18;2.00;;;1.77;;
54197;SDS011;40105;52.366;17.000;2023-12-14T13:21:43;8.63;;;2.73;;
54197;SDS011;40105;52.366;17.000;2023-12-14T13:24:08;5.23;;;1.80;;
54197;SDS011;40105;52.366;17.000;2023-12-14T13:26:33;3.85;;;2.38;;
54197;SDS011;40105;52.366;17.000;2023-12-14T13:28:58;3.73;;;2.67;;
54197;SDS011;40105;52.366;17.000;2023-12-14T13:31:23;3.63;;;3.27;;
54197;SDS011;40105;52.366;17.000;2023-12-14T13:33:49;2.72;;;1.08;;
54197;SDS011;40105;52.366;17.000;2023-12-14T13:36:18;3.25;;;1.33;;
54197;SDS011;40105;52.366;17.000;2023-12-14T13:38:44;6.13;;;2.47;;
54197;SDS011;40105;52.366;17.000;2023-12-14T13:41:09;9.73;;;5.03;;
54197;SDS011;40105;52.366;17.000;2023-12-14T13:43:34;12.70;;;4.80;;
54197;SDS011;40105;52.366;17.000;2023-12-14T13:46:00;11.77;;;7.47;;
54197;SDS011;40105;52.366;17.000;2023-12-14T13:48:25;8.70;;;6.73;;
54197;SDS011;40105;52.366;17.000;2023-12-14T13:50:51;34.85;;;11.52;;
54197;SDS011;40105;52.366;17.000;2023-12-14T13:53:16;47.97;;;17.53;;
54197;SDS011;40105;52.366;17.000;2023-12-14T13:55:41;70.47;;;21.70;;
54197;SDS011;40105;52.366;17.000;2023-12-14T13:58:06;33.23;;;11.07;;
54197;SDS011;40105;52.366;17.000;2023-12-14T14:00:31;21.83;;;11.43;;
54197;SDS011;40105;52.366;17.000;2023-12-14T14:02:57;24.50;;;10.57;;
54197;SDS011;40105;52.366;17.000;2023-12-14T14:05:23;21.77;;;9.35;;
54197;SDS011;40105;52.366;17.000;2023-12-14T14:07:48;18.23;;;7.63;;
54197;SDS011;40105;52.366;17.000;2023-12-14T14:10:13;14.27;;;6.30;;
54197;SDS011;40105;52.366;17.000;2023-12-14T14:12:38;7.13;;;3.77;;
54197;SDS011;40105;52.366;17.000;2023-12-14T14:15:04;2.30;;;2.10;;
54197;SDS011;40105;52.366;17.000;2023-12-14T14:17:30;9.15;;;2.97;;
54197;SDS011;40105;52.366;17.000;2023-12-14T14:19:55;2.28;;;2.08;;
54197;SDS011;40105;52.366;17.000;2023-12-14T14:22:20;37.27;;;4.97;;
54197;SDS011;40105;52.366;17.000;2023-12-14T14:24:46;16.95;;;3.55;;
54197;SDS011;40105;52.366;17.000;2023-12-14T14:27:11;4.50;;;3.27;;